createdAt,value
2023-03-22T00:02:08.191Z,31.60
2023-03-22T00:05:12.647Z,33.05
2023-03-22T00:08:17.009Z,34.13
2023-03-22T00:11:24.418Z,32.60
2023-03-22T00:14:28.768Z,37.33
2023-03-22T00:17:33.315Z,36.38
2023-03-22T00:20:39.457Z,36.20
2023-03-22T00:23:45.062Z,37.58
2023-03-22T00:26:49.684Z,38.20
2023-03-22T00:29:54.344Z,38.67
2023-03-22T00:32:58.622Z,35.70
2023-03-22T00:36:07.012Z,36.60
2023-03-22T00:39:11.646Z,37.60
2023-03-22T00:42:16.260Z,38.63
2023-03-22T00:45:20.851Z,38.75
2023-03-22T00:48:25.648Z,36.33
2023-03-22T00:51:30.085Z,35.72
2023-03-22T00:54:34.466Z,37.88
2023-03-22T00:57:38.951Z,35.97
2023-03-22T01:00:45.124Z,28.20
2023-03-22T01:03:50.622Z,41.13
2023-03-22T01:07:02.030Z,42.22
2023-03-22T01:10:07.406Z,39.80
2023-03-22T01:13:12.701Z,41.17
2023-03-22T01:16:18.205Z,39.90
2023-03-22T01:19:23.323Z,41.53
2023-03-22T01:22:28.007Z,41.17
2023-03-22T01:25:32.557Z,42.08
2023-03-22T01:28:37.177Z,43.22
2023-03-22T01:31:41.883Z,37.97
2023-03-22T01:34:46.924Z,33.20
2023-03-22T01:37:51.573Z,34.00
2023-03-22T01:40:57.378Z,31.58
2023-03-22T01:44:14.235Z,30.05
2023-03-22T01:47:18.914Z,30.75
2023-03-22T01:50:25.843Z,28.55
2023-03-22T01:53:34.700Z,26.85
2023-03-22T01:56:42.508Z,24.65
2023-03-22T01:59:52.668Z,27.02
2023-03-22T02:03:25.851Z,19.58
2023-03-22T02:06:32.371Z,26.67
2023-03-22T02:09:46.508Z,29.00
2023-03-22T02:13:10.464Z,26.83
2023-03-22T02:17:06.810Z,27.88
2023-03-22T02:20:32.245Z,31.90
2023-03-22T02:23:57.145Z,29.45
2023-03-22T02:27:23.531Z,27.80
2023-03-22T02:30:40.164Z,31.08
2023-03-22T02:34:17.058Z,31.05
2023-03-22T02:37:43.130Z,33.85
2023-03-22T02:40:57.456Z,34.95
2023-03-22T02:44:10.592Z,33.35
2023-03-22T02:47:34.295Z,34.50
2023-03-22T02:50:51.554Z,34.97
2023-03-22T02:53:59.155Z,35.80
2023-03-22T02:57:08.416Z,34.90
2023-03-22T03:00:15.772Z,35.42
2023-03-22T03:03:25.574Z,37.60
2023-03-22T03:06:35.756Z,37.60
2023-03-22T03:09:42.349Z,35.72
2023-03-22T03:12:48.823Z,36.65
2023-03-22T03:15:59.120Z,29.00
2023-03-22T03:19:30.732Z,35.45
2023-03-22T03:22:42.306Z,36.53
2023-03-22T03:26:20.940Z,37.10
2023-03-22T03:29:37.881Z,41.30
2023-03-22T03:32:52.673Z,42.85
2023-03-22T03:36:05.084Z,41.75
2023-03-22T03:39:13.629Z,41.35
2023-03-22T03:42:19.127Z,45.45
2023-03-22T03:45:24.936Z,44.92
2023-03-22T03:48:32.408Z,43.35
2023-03-22T03:51:50.259Z,45.53
2023-03-22T03:54:55.221Z,42.72
2023-03-22T03:58:05.695Z,45.95
2023-03-22T04:04:34.879Z,47.72
2023-03-22T04:07:40.371Z,46.35
2023-03-22T04:10:50.174Z,48.08
2023-03-22T04:13:54.929Z,50.33
2023-03-22T04:17:01.075Z,47.90
2023-03-22T04:20:10.788Z,45.67
2023-03-22T04:23:15.957Z,48.42
2023-03-22T04:26:25.531Z,46.60
2023-03-22T04:29:52.353Z,49.95
2023-03-22T04:33:15.304Z,46.72
2023-03-22T04:36:39.686Z,49.00
2023-03-22T04:39:54.231Z,43.95
2023-03-22T04:43:23.012Z,46.08
2023-03-22T04:46:35.388Z,49.72
2023-03-22T04:49:42.704Z,47.78
2023-03-22T04:52:48.071Z,46.72
2023-03-22T04:55:59.516Z,50.90
2023-03-22T04:59:06.556Z,49.05
2023-03-22T05:02:10.965Z,42.30
2023-03-22T05:05:20.253Z,46.05
2023-03-22T05:08:27.347Z,41.90
2023-03-22T05:11:32.139Z,39.25
2023-03-22T05:14:50.825Z,43.58
2023-03-22T05:18:00.266Z,42.15
2023-03-22T05:21:06.795Z,41.08
2023-03-22T05:24:11.933Z,40.22
2023-03-22T05:27:31.659Z,40.20
2023-03-22T05:30:57.109Z,42.35
2023-03-22T05:34:20.366Z,35.58
2023-03-22T05:40:33.232Z,34.90
2023-03-22T05:43:38.280Z,36.67
2023-03-22T05:46:43.131Z,39.30
2023-03-22T05:50:17.507Z,36.15
2023-03-22T05:53:22.167Z,35.95
2023-03-22T05:56:31.166Z,36.65
2023-03-22T05:59:43.555Z,34.45
2023-03-22T06:03:00.543Z,37.35
2023-03-22T06:06:06.999Z,34.42
2023-03-22T06:09:18.256Z,33.33
2023-03-22T06:12:29.998Z,32.45
2023-03-22T06:15:44.256Z,35.15
2023-03-22T06:18:55.519Z,36.35
2023-03-22T06:21:59.942Z,33.25
2023-03-22T06:25:06.955Z,31.85
2023-03-22T06:28:17.310Z,33.40
2023-03-22T06:31:30.840Z,33.63
2023-03-22T06:34:41.100Z,31.48
2023-03-22T06:37:47.664Z,34.45
2023-03-22T06:40:51.860Z,31.58
2023-03-22T06:43:56.427Z,34.63
2023-03-22T06:47:18.218Z,34.45
2023-03-22T06:50:44.098Z,32.25
2023-03-22T06:53:56.259Z,30.92
2023-03-22T06:57:00.812Z,30.67
2023-03-22T07:00:05.987Z,32.72
2023-03-22T07:03:11.164Z,30.23
2023-03-22T07:06:34.354Z,31.05
2023-03-22T07:09:40.624Z,28.65
2023-03-22T07:12:45.360Z,28.83
2023-03-22T07:15:57.379Z,32.40
2023-03-22T07:19:17.280Z,29.75
2023-03-22T07:22:22.490Z,27.05
2023-03-22T07:25:29.645Z,27.77
2023-03-22T07:28:47.203Z,25.27
2023-03-22T07:31:52.754Z,25.45
2023-03-22T07:35:04.482Z,29.42
2023-03-22T07:38:09.116Z,25.60
2023-03-22T07:41:13.706Z,26.48
2023-03-22T07:44:30.939Z,25.63
2023-03-22T07:47:53.604Z,26.70
2023-03-22T07:51:16.979Z,23.85
2023-03-22T07:54:32.880Z,25.98
2023-03-22T07:57:39.897Z,24.27
2023-03-22T08:00:44.568Z,23.35
2023-03-22T08:04:08.317Z,24.02
2023-03-22T08:07:25.821Z,23.65
2023-03-22T08:10:31.768Z,22.38
2023-03-22T08:13:36.372Z,23.02
2023-03-22T08:16:44.208Z,23.10
2023-03-22T08:19:50.059Z,22.77
2023-03-22T08:22:59.752Z,21.92
2023-03-22T08:26:04.338Z,20.85
2023-03-22T08:29:10.877Z,20.98
2023-03-22T08:32:16.678Z,20.50
2023-03-22T08:35:21.322Z,21.50
2023-03-22T08:38:28.466Z,18.50
2023-03-22T08:41:34.393Z,18.77
2023-03-22T08:44:39.339Z,17.40
2023-03-22T08:47:44.810Z,19.05
2023-03-22T08:50:49.826Z,19.45
2023-03-22T08:54:03.974Z,18.40
2023-03-22T08:57:27.690Z,16.02
2023-03-22T09:00:52.702Z,17.80
2023-03-22T09:04:17.790Z,19.10
2023-03-22T09:07:22.516Z,18.73
2023-03-22T09:10:39.797Z,18.98
2023-03-22T09:13:46.525Z,21.02
2023-03-22T09:16:51.810Z,19.65
2023-03-22T09:20:11.088Z,21.10
2023-03-22T09:23:18.247Z,18.38
2023-03-22T09:29:30.250Z,19.48
2023-03-22T09:32:35.939Z,18.27
2023-03-22T09:35:43.113Z,18.77
2023-03-22T09:38:50.388Z,18.77
2023-03-22T09:42:03.844Z,20.27
2023-03-22T09:45:16.599Z,19.77
2023-03-22T09:48:27.659Z,18.40
2023-03-22T09:51:44.856Z,20.15
2023-03-22T09:54:52.208Z,20.70
2023-03-22T09:58:07.884Z,19.75
2023-03-22T10:01:37.456Z,19.48
2023-03-22T10:05:00.786Z,23.25
2023-03-22T10:08:35.703Z,20.92
2023-03-22T10:12:05.079Z,21.95
2023-03-22T10:15:17.144Z,19.27
2023-03-22T10:18:43.482Z,20.33
2023-03-22T10:21:50.420Z,18.55
2023-03-22T10:24:55.688Z,18.63
2023-03-22T10:27:59.648Z,20.08
2023-03-22T10:31:05.883Z,16.23
2023-03-22T10:34:28.107Z,18.73
2023-03-22T10:37:35.837Z,20.50
2023-03-22T10:40:40.958Z,18.60
2023-03-22T10:43:48.308Z,17.58
2023-03-22T10:46:55.964Z,21.17
2023-03-22T10:50:06.068Z,17.70
2023-03-22T10:53:23.664Z,19.08
2023-03-22T10:56:27.964Z,18.70
2023-03-22T10:59:51.696Z,18.88
2023-03-22T11:03:00.453Z,18.48
2023-03-22T11:06:12.407Z,16.38
2023-03-22T11:09:22.250Z,16.55
2023-03-22T11:12:27.075Z,16.98
2023-03-22T11:15:34.661Z,19.15
2023-03-22T11:18:41.845Z,17.25
2023-03-22T11:21:46.700Z,16.10
2023-03-22T11:24:52.089Z,16.08
2023-03-22T11:28:05.560Z,17.98
2023-03-22T11:31:11.731Z,16.40
2023-03-22T11:34:21.705Z,16.52
2023-03-22T11:37:26.498Z,14.98
2023-03-22T11:40:34.473Z,15.73
2023-03-22T11:43:43.993Z,14.43
2023-03-22T11:47:03.384Z,14.95
2023-03-22T11:50:20.633Z,17.08
2023-03-22T11:53:27.847Z,16.13
2023-03-22T11:56:32.238Z,13.95
2023-03-22T11:59:48.500Z,15.20
2023-03-22T12:02:57.939Z,14.88
2023-03-22T12:06:08.179Z,14.00
2023-03-22T12:09:38.018Z,14.40
2023-03-22T12:12:50.719Z,12.45
2023-03-22T12:15:59.232Z,12.85
2023-03-22T12:19:29.786Z,12.45
2023-03-22T12:22:51.048Z,12.98
2023-03-22T12:26:15.321Z,11.85
2023-03-22T12:29:21.040Z,12.75
2023-03-22T12:32:33.990Z,11.70
2023-03-22T12:35:44.071Z,10.82
2023-03-22T12:38:56.679Z,9.30
2023-03-22T12:42:17.701Z,10.65
2023-03-22T12:45:26.836Z,10.82
2023-03-22T12:48:38.016Z,10.65
2023-03-22T12:51:43.870Z,7.90
2023-03-22T12:54:50.547Z,9.48
2023-03-22T12:57:55.639Z,8.10
2023-03-22T13:01:31.759Z,8.38
2023-03-22T13:04:37.664Z,9.27
2023-03-22T13:07:48.211Z,10.00
2023-03-22T13:11:01.331Z,11.48
2023-03-22T13:14:05.665Z,11.15
2023-03-22T13:17:11.144Z,10.18
2023-03-22T13:20:21.446Z,10.70
2023-03-22T13:23:27.037Z,12.57
2023-03-22T13:26:51.362Z,11.00
2023-03-22T13:29:57.863Z,11.52
2023-03-22T13:33:15.061Z,10.38
2023-03-22T13:36:25.104Z,11.70
2023-03-22T13:39:34.658Z,11.25
2023-03-22T13:42:41.603Z,11.10
2023-03-22T13:46:07.663Z,11.05
2023-03-22T13:49:40.880Z,11.90
2023-03-22T13:53:02.138Z,12.02
2023-03-22T13:56:07.338Z,13.07
2023-03-22T13:59:12.828Z,13.15
2023-03-22T14:02:28.247Z,12.55
2023-03-22T14:05:36.457Z,14.20
2023-03-22T14:08:43.694Z,12.95
2023-03-22T14:12:06.089Z,13.93
2023-03-22T14:15:16.780Z,13.45
2023-03-22T14:18:28.566Z,13.75
2023-03-22T14:21:43.006Z,13.50
